createdAt,value
2023-05-20T00:00:50.902Z,95549.38
2023-05-20T00:03:53.870Z,95543.53
2023-05-20T00:06:56.079Z,95543.97
2023-05-20T00:09:58.344Z,95549.38
2023-05-20T00:13:01.592Z,95536.22
2023-05-20T00:16:05.891Z,95540.47
2023-05-20T00:19:07.799Z,95548.56
2023-05-20T00:22:09.653Z,95548.97
2023-05-20T00:25:13.647Z,95540.09
2023-05-20T00:28:19.055Z,95530.44
2023-05-20T00:31:22.470Z,95543.94
2023-05-20T00:34:24.261Z,95537.38
2023-05-20T00:37:26.473Z,95539.28
2023-05-20T00:40:30.658Z,95524.25
2023-05-20T00:43:36.108Z,95524.25
2023-05-20T00:46:38.854Z,95527.34
2023-05-20T00:49:40.865Z,95526.19
2023-05-20T00:52:43.127Z,95520.41
2023-05-20T00:55:45.004Z,95525.03
2023-05-20T00:58:48.398Z,95531.22
2023-05-20T01:01:52.147Z,95537.00
2023-05-20T01:04:54.623Z,95532.38
2023-05-20T01:07:56.439Z,95529.28
2023-05-20T01:11:04.346Z,95525.00
2023-05-20T01:14:10.737Z,95527.72
2023-05-20T01:17:14.758Z,95511.13
2023-05-20T01:20:18.017Z,95517.69
2023-05-20T01:23:22.665Z,95515.75
2023-05-20T01:26:24.721Z,95521.53
2023-05-20T01:29:29.267Z,95521.19
2023-05-20T01:32:34.467Z,95520.78
2023-05-20T01:35:36.768Z,95507.66
2023-05-20T01:38:42.054Z,95515.75
2023-05-20T01:41:47.439Z,95509.97
2023-05-20T01:44:49.548Z,95511.53
2023-05-20T01:47:52.766Z,95513.06
2023-05-20T01:50:54.898Z,95507.28
2023-05-20T01:53:58.010Z,95513.06
2023-05-20T01:57:00.050Z,95518.47
2023-05-20T02:00:02.319Z,95525.03
2023-05-20T02:03:04.178Z,95528.13
2023-05-20T02:06:08.159Z,95514.63
2023-05-20T02:09:11.472Z,95511.13
2023-05-20T02:12:13.285Z,95509.19
2023-05-20T02:15:15.435Z,95507.66
2023-05-20T02:18:17.180Z,95507.66
2023-05-20T02:21:18.943Z,95499.94
2023-05-20T02:24:24.742Z,95503.00
2023-05-20T02:27:27.203Z,95490.28
2023-05-20T02:30:29.452Z,95490.63
2023-05-20T02:33:33.467Z,95487.94
2023-05-20T02:36:38.212Z,95489.13
2023-05-20T02:39:41.779Z,95492.97
2023-05-20T02:42:43.511Z,95503.78
2023-05-20T02:45:46.085Z,95490.25
2023-05-20T02:48:48.852Z,95497.97
2023-05-20T02:51:53.459Z,95492.56
2023-05-20T02:55:00.205Z,95495.69
2023-05-20T02:58:04.435Z,95494.53
2023-05-20T03:01:06.297Z,95494.53
2023-05-20T03:04:08.532Z,95494.50
2023-05-20T03:07:10.562Z,95495.69
2023-05-20T03:10:18.894Z,95493.34
2023-05-20T03:13:20.721Z,95498.75
2023-05-20T03:16:25.763Z,95492.19
2023-05-20T03:19:27.704Z,95495.28
2023-05-20T03:22:30.813Z,95491.00
2023-05-20T03:25:34.404Z,95496.44
2023-05-20T03:28:36.824Z,95497.16
2023-05-20T03:31:41.385Z,95505.31
2023-05-20T03:34:43.331Z,95504.91
2023-05-20T03:37:47.962Z,95505.66
2023-05-20T03:40:51.321Z,95516.47
2023-05-20T03:43:53.411Z,95513.03
2023-05-20T03:46:55.584Z,95509.16
2023-05-20T03:49:57.505Z,95516.91
2023-05-20T03:52:59.816Z,95507.66
2023-05-20T03:56:05.892Z,95510.34
2023-05-20T03:59:10.686Z,95510.72
2023-05-20T04:02:12.725Z,95514.59
2023-05-20T04:05:16.592Z,95504.94
2023-05-20T04:08:19.090Z,95511.13
2023-05-20T04:11:24.941Z,95516.91
2023-05-20T04:14:29.219Z,95510.34
2023-05-20T04:17:31.654Z,95518.84
2023-05-20T04:20:34.032Z,95519.25
2023-05-20T04:23:35.759Z,95513.44
2023-05-20T04:26:41.353Z,95519.63
2023-05-20T04:29:45.262Z,95520.41
2023-05-20T04:32:47.342Z,95513.44
2023-05-20T04:35:51.638Z,95515.00
2023-05-20T04:38:56.604Z,95518.09
2023-05-20T04:42:00.683Z,95511.91
2023-05-20T04:45:06.330Z,95510.38
2023-05-20T04:48:08.141Z,95510.75
2023-05-20T04:51:09.931Z,95514.22
2023-05-20T04:54:11.920Z,95511.91
2023-05-20T04:57:17.722Z,95518.47
2023-05-20T05:00:21.734Z,95513.84
2023-05-20T05:03:23.646Z,95514.25
2023-05-20T05:06:25.675Z,95508.81
2023-05-20T05:09:27.687Z,95514.22
2023-05-20T05:12:31.076Z,95512.31
2023-05-20T05:15:35.215Z,95504.56
2023-05-20T05:18:37.337Z,95513.47
2023-05-20T05:21:42.359Z,95516.16
2023-05-20T05:24:45.174Z,95514.63
2023-05-20T05:27:50.801Z,95518.09
2023-05-20T05:30:55.979Z,95515.00
2023-05-20T05:33:58.558Z,95517.72
2023-05-20T05:37:00.594Z,95499.91
2023-05-20T05:40:04.471Z,95510.72
2023-05-20T05:43:11.599Z,95505.31
2023-05-20T05:46:14.933Z,95505.69
2023-05-20T05:49:17.373Z,95499.50
2023-05-20T05:52:21.607Z,95504.91
2023-05-20T05:55:23.696Z,95504.91
2023-05-20T05:58:35.710Z,95504.50
2023-05-20T06:01:38.018Z,95504.09
2023-05-20T06:04:40.028Z,95505.25
2023-05-20T06:07:42.444Z,95496.72
2023-05-20T06:10:47.786Z,95492.81
2023-05-20T06:13:51.031Z,95483.91
2023-05-20T06:16:54.168Z,95499.75
2023-05-20T06:19:56.462Z,95497.84
2023-05-20T06:22:58.641Z,95500.88
2023-05-20T06:26:01.113Z,95496.63
2023-05-20T06:29:04.784Z,95490.81
2023-05-20T06:32:06.964Z,95500.84
2023-05-20T06:35:09.943Z,95494.22
2023-05-20T06:38:11.924Z,95495.72
2023-05-20T06:41:14.222Z,95498.44
2023-05-20T06:44:17.889Z,95497.19
2023-05-20T06:47:20.883Z,95499.50
2023-05-20T06:50:22.643Z,95498.00
2023-05-20T06:53:24.434Z,95500.69
2023-05-20T06:56:26.482Z,95494.44
2023-05-20T06:59:29.878Z,95494.03
2023-05-20T07:02:35.108Z,95488.13
2023-05-20T07:05:36.911Z,95494.28
2023-05-20T07:08:38.964Z,95501.94
2023-05-20T07:11:41.974Z,95493.06
2023-05-20T07:14:47.802Z,95491.75
2023-05-20T07:17:49.863Z,95497.91
2023-05-20T07:20:52.768Z,95495.94
2023-05-20T07:23:54.771Z,95489.69
2023-05-20T07:26:59.265Z,95492.69
2023-05-20T07:30:02.400Z,95485.56
2023-05-20T07:33:05.221Z,95480.19
2023-05-20T07:36:09.096Z,95473.88
2023-05-20T07:39:15.070Z,95483.06
2023-05-20T07:42:16.920Z,95469.72
2023-05-20T07:45:20.448Z,95471.22
2023-05-20T07:48:24.443Z,95463.34
2023-05-20T07:51:26.209Z,95467.25
2023-05-20T07:54:28.936Z,95461.28
2023-05-20T07:57:30.732Z,95469.84
2023-05-20T08:00:36.292Z,95465.47
2023-05-20T08:03:38.577Z,95472.88
2023-05-20T08:06:43.371Z,95475.88
2023-05-20T08:09:45.339Z,95477.31
2023-05-20T08:12:47.363Z,95469.41
2023-05-20T08:15:52.829Z,95472.41
2023-05-20T08:18:58.805Z,95466.22
2023-05-20T08:22:00.600Z,95481.38
2023-05-20T08:25:04.971Z,95467.72
2023-05-20T08:28:10.247Z,95470.34
2023-05-20T08:31:15.171Z,95469.47
2023-05-20T08:34:17.215Z,95466.16
2023-05-20T08:37:19.176Z,95463.78
2023-05-20T08:40:21.130Z,95465.38
2023-05-20T08:43:23.450Z,95462.59
2023-05-20T08:46:27.205Z,95469.47
2023-05-20T08:49:29.341Z,95461.19
2023-05-20T08:52:34.823Z,95448.31
2023-05-20T08:55:42.970Z,95447.34
2023-05-20T08:58:45.275Z,95455.44
2023-05-20T09:01:51.419Z,95449.38
2023-05-20T09:04:53.426Z,95457.22
2023-05-20T09:08:05.552Z,95460.63
2023-05-20T09:11:09.892Z,95452.69
2023-05-20T09:14:11.749Z,95453.25
2023-05-20T09:17:15.818Z,95458.22
2023-05-20T09:20:18.262Z,95442.06
2023-05-20T09:23:20.493Z,95454.16
2023-05-20T09:26:23.953Z,95460.31
2023-05-20T09:29:26.418Z,95458.03
2023-05-20T09:32:31.850Z,95471.75
2023-05-20T09:35:36.423Z,95453.22
2023-05-20T09:38:39.289Z,95462.59
2023-05-20T09:41:49.490Z,95464.94
2023-05-20T09:44:53.913Z,95467.59
2023-05-20T09:47:58.153Z,95455.81
2023-05-20T09:51:01.535Z,95467.03
2023-05-20T09:54:04.838Z,95461.56
2023-05-20T09:57:10.134Z,95453.13
2023-05-20T10:00:12.842Z,95456.75
2023-05-20T10:03:18.933Z,95457.34
2023-05-20T10:06:38.751Z,95448.97
2023-05-20T10:09:57.825Z,95448.16
2023-05-20T10:13:09.326Z,95456.84
2023-05-20T10:16:23.380Z,95454.22
2023-05-20T10:19:34.831Z,95450.09
2023-05-20T10:22:36.634Z,95462.00
2023-05-20T10:25:40.392Z,95461.97
2023-05-20T10:28:42.599Z,95449.81
2023-05-20T10:31:45.757Z,95452.13
2023-05-20T10:34:50.741Z,95454.84
2023-05-20T10:37:53.513Z,95444.72
2023-05-20T10:40:57.582Z,95447.13
2023-05-20T10:44:00.482Z,95444.72
2023-05-20T10:47:23.562Z,95442.75
2023-05-20T10:50:36.845Z,95444.34
2023-05-20T10:53:41.471Z,95446.88
2023-05-20T10:56:52.371Z,95450.78
2023-05-20T10:59:57.494Z,95444.34
2023-05-20T11:03:00.548Z,95442.94
2023-05-20T11:06:16.137Z,95438.47
2023-05-20T11:09:21.625Z,95442.97
2023-05-20T11:12:24.808Z,95438.81
2023-05-20T11:15:29.674Z,95433.69
2023-05-20T11:18:32.679Z,95428.75
2023-05-20T11:21:43.377Z,95428.84
2023-05-20T11:24:45.386Z,95427.09
2023-05-20T11:27:49.611Z,95424.78
2023-05-20T11:30:52.343Z,95425.13
2023-05-20T11:33:55.408Z,95417.69
2023-05-20T11:36:59.166Z,95423.47
2023-05-20T11:40:08.189Z,95422.25
2023-05-20T11:43:12.028Z,95412.63
2023-05-20T11:46:13.846Z,95410.56
2023-05-20T11:49:19.049Z,95408.59
2023-05-20T11:52:23.481Z,95399.03
2023-05-20T11:55:26.488Z,95409.13
2023-05-20T11:58:30.840Z,95402.00
2023-05-20T12:01:33.762Z,95403.06
2023-05-20T12:04:38.581Z,95402.13
2023-05-20T12:07:44.371Z,95405.31
2023-05-20T12:10:46.363Z,95399.28
2023-05-20T12:13:48.577Z,95403.53
2023-05-20T12:16:50.549Z,95400.03
2023-05-20T12:19:54.961Z,95412.63
2023-05-20T12:22:58.372Z,95407.81
2023-05-20T12:26:00.296Z,95400.78
2023-05-20T12:29:02.103Z,95393.63
2023-05-20T12:32:05.694Z,95392.28
2023-05-20T12:35:09.771Z,95391.72
2023-05-20T12:38:13.019Z,95385.97
2023-05-20T12:41:15.337Z,95387.25
2023-05-20T12:44:19.590Z,95381.28
2023-05-20T12:47:23.063Z,95392.66
2023-05-20T12:50:25.296Z,95391.63
2023-05-20T12:53:28.457Z,95388.09
2023-05-20T12:56:33.033Z,95388.53
2023-05-20T12:59:36.897Z,95387.66
2023-05-20T13:02:40.072Z,95382.56
2023-05-20T13:05:42.133Z,95381.59
2023-05-20T13:08:47.147Z,95369.53
2023-05-20T13:11:49.340Z,95357.00
2023-05-20T13:14:51.541Z,95367.81
2023-05-20T13:17:58.959Z,95365.78
2023-05-20T13:21:04.781Z,95369.47
2023-05-20T13:24:10.708Z,95364.19
2023-05-20T13:27:13.250Z,95362.22
2023-05-20T13:30:15.013Z,95356.16
2023-05-20T13:33:16.834Z,95363.56
2023-05-20T13:36:19.999Z,95348.94
2023-05-20T13:39:25.448Z,95358.50
2023-05-20T13:42:27.544Z,95356.22
2023-05-20T13:45:29.481Z,95354.38
2023-05-20T13:48:34.078Z,95332.38
2023-05-20T13:51:35.961Z,95332.84
2023-05-20T13:54:40.620Z,95336.97
2023-05-20T13:57:42.489Z,95325.31
2023-05-20T14:00:44.633Z,95330.09
2023-05-20T14:03:46.785Z,95329.78
2023-05-20T14:06:48.648Z,95338.13
2023-05-20T14:09:54.354Z,95330.41
2023-05-20T14:12:58.219Z,95333.50
2023-05-20T14:16:00.150Z,95330.94
2023-05-20T14:19:02.280Z,95322.72
2023-05-20T14:22:05.582Z,95327.63
2023-05-20T14:25:09.428Z,95328.19
2023-05-20T14:28:11.495Z,95324.53
2023-05-20T14:31:14.274Z,95337.28
2023-05-20T14:34:16.393Z,95333.47
2023-05-20T14:37:19.160Z,95330.72
2023-05-20T14:40:22.588Z,95328.13
2023-05-20T14:43:24.688Z,95326.06
2023-05-20T14:46:27.020Z,95332.31
2023-05-20T14:49:31.376Z,95322.44
2023-05-20T14:52:33.195Z,95330.47
2023-05-20T14:55:37.530Z,95326.06
2023-05-20T14:58:39.319Z,95319.88
2023-05-20T15:01:41.400Z,95318.78
2023-05-20T15:04:44.600Z,95309.50
2023-05-20T15:07:48.634Z,95309.00
2023-05-20T15:10:51.748Z,95302.06
2023-05-20T15:13:53.560Z,95313.84
2023-05-20T15:16:55.429Z,95300.06
2023-05-20T15:19:59.540Z,95304.50
2023-05-20T15:23:02.504Z,95302.72
2023-05-20T15:26:06.539Z,95307.25
2023-05-20T15:29:08.545Z,95293.56
2023-05-20T15:32:11.219Z,95280.44
2023-05-20T15:35:13.053Z,95284.50
2023-05-20T15:38:15.554Z,95293.91
2023-05-20T15:41:19.074Z,95290.31
2023-05-20T15:44:21.130Z,95301.28
2023-05-20T15:47:22.846Z,95291.34
2023-05-20T15:50:24.641Z,95294.22
2023-05-20T15:53:28.956Z,95289.88
2023-05-20T15:56:32.813Z,95300.63
2023-05-20T15:59:38.145Z,95285.56
2023-05-20T16:02:40.375Z,95282.09
2023-05-20T16:05:42.416Z,95285.31
2023-05-20T16:08:44.662Z,95277.94
2023-05-20T16:11:50.130Z,95296.31
2023-05-20T16:14:51.943Z,95280.47
2023-05-20T16:17:53.833Z,95280.78
2023-05-20T16:20:56.070Z,95284.09
2023-05-20T16:23:57.865Z,95281.50
2023-05-20T16:27:01.170Z,95295.72
2023-05-20T16:30:03.024Z,95292.69
2023-05-20T16:33:05.071Z,95300.94
2023-05-20T16:36:07.027Z,95304.84
2023-05-20T16:39:09.142Z,95308.00
2023-05-20T16:42:12.397Z,95304.97
2023-05-20T16:45:16.291Z,95311.78
2023-05-20T16:48:18.026Z,95307.19
2023-05-20T16:51:20.280Z,95311.75
2023-05-20T16:54:22.007Z,95308.31
2023-05-20T16:57:25.171Z,95316.28
2023-05-20T17:00:27.521Z,95318.25
2023-05-20T17:03:29.650Z,95323.72
2023-05-20T17:06:34.167Z,95318.69
2023-05-20T17:09:36.417Z,95319.56
2023-05-20T17:12:39.847Z,95317.91
2023-05-20T17:15:41.840Z,95332.44
2023-05-20T17:18:43.935Z,95339.22
2023-05-20T17:21:46.912Z,95340.75
2023-05-20T17:24:49.016Z,95338.78
2023-05-20T17:27:53.294Z,95353.59
2023-05-20T17:30:55.600Z,95353.75
2023-05-20T17:33:58.241Z,95343.97
2023-05-20T17:37:00.763Z,95334.38
2023-05-20T17:40:04.026Z,95356.41
2023-05-20T17:43:09.316Z,95344.91
2023-05-20T17:46:12.028Z,95348.81
2023-05-20T17:49:14.971Z,95355.66
2023-05-20T17:52:18.128Z,95353.91
2023-05-20T17:55:20.716Z,95359.50
2023-05-20T17:58:24.850Z,95360.69
2023-05-20T18:01:27.708Z,95363.28
2023-05-20T18:04:30.658Z,95359.22
2023-05-20T18:07:33.105Z,95359.34
2023-05-20T18:10:36.296Z,95356.94
2023-05-20T18:13:40.268Z,95369.09
2023-05-20T18:16:42.642Z,95359.88
2023-05-20T18:19:45.600Z,95365.81
2023-05-20T18:22:48.160Z,95364.06
2023-05-20T18:25:50.637Z,95352.34
2023-05-20T18:28:54.452Z,95357.78
2023-05-20T18:31:57.100Z,95358.56
2023-05-20T18:35:00.244Z,95363.53
2023-05-20T18:38:03.146Z,95369.25
2023-05-20T18:41:08.503Z,95362.63
2023-05-20T18:44:12.973Z,95359.03
2023-05-20T18:47:15.994Z,95353.31
2023-05-20T18:50:18.990Z,95373.78
2023-05-20T18:53:24.064Z,95368.75
2023-05-20T18:56:26.939Z,95367.22
2023-05-20T18:59:31.109Z,95365.06
2023-05-20T19:02:33.656Z,95373.69
2023-05-20T19:05:36.893Z,95381.25
2023-05-20T19:08:40.692Z,95379.56
2023-05-20T19:11:43.186Z,95390.50
2023-05-20T19:14:48.134Z,95380.06
2023-05-20T19:17:50.968Z,95391.56
2023-05-20T19:20:54.606Z,95390.94
2023-05-20T19:23:57.212Z,95388.66
2023-05-20T19:27:02.570Z,95406.56
2023-05-20T19:30:10.018Z,95393.09
2023-05-20T19:33:13.582Z,95390.22
2023-05-20T19:36:17.457Z,95392.53
2023-05-20T19:39:20.477Z,95398.09
2023-05-20T19:42:23.171Z,95387.84
2023-05-20T19:45:27.117Z,95394.41
2023-05-20T19:48:30.330Z,95396.78
2023-05-20T19:51:32.928Z,95386.88
2023-05-20T19:54:35.528Z,95389.19
2023-05-20T19:57:41.136Z,95391.59
2023-05-20T20:00:45.002Z,95395.75
2023-05-20T20:03:47.526Z,95390.41
2023-05-20T20:06:51.170Z,95395.78
2023-05-20T20:09:54.349Z,95399.88
2023-05-20T20:12:56.899Z,95405.06
2023-05-20T20:16:02.028Z,95403.44
2023-05-20T20:19:04.793Z,95408.28
2023-05-20T20:22:07.430Z,95414.44
2023-05-20T20:25:10.190Z,95416.00
2023-05-20T20:28:12.772Z,95425.03
2023-05-20T20:31:16.654Z,95416.75
2023-05-20T20:34:19.255Z,95425.38
2023-05-20T20:37:21.799Z,95420.44
2023-05-20T20:40:25.774Z,95412.06
2023-05-20T20:43:28.349Z,95417.84
2023-05-20T20:46:32.223Z,95422.56
2023-05-20T20:49:35.237Z,95406.44
2023-05-20T20:52:41.608Z,95412.38
2023-05-20T20:55:44.049Z,95412.38
2023-05-20T20:58:48.345Z,95416.13
2023-05-20T21:01:52.785Z,95407.38
2023-05-20T21:04:55.312Z,95403.44
2023-05-20T21:07:57.190Z,95410.84
2023-05-20T21:10:59.235Z,95406.94
2023-05-20T21:14:01.150Z,95409.66
2023-05-20T21:17:04.887Z,95411.56
2023-05-20T21:20:08.081Z,95421.34
2023-05-20T21:23:09.859Z,95421.94
2023-05-20T21:26:12.309Z,95424.50
2023-05-20T21:29:14.278Z,95422.13
2023-05-20T21:32:17.680Z,95419.47
2023-05-20T21:35:21.784Z,95414.28
2023-05-20T21:38:23.556Z,95426.59
2023-05-20T21:41:25.320Z,95425.50
2023-05-20T21:44:27.171Z,95421.41
2023-05-20T21:47:32.973Z,95423.03
2023-05-20T21:50:36.076Z,95429.94
2023-05-20T21:53:37.912Z,95422.66
2023-05-20T21:56:41.825Z,95420.38
2023-05-20T21:59:43.662Z,95418.56
2023-05-20T22:02:49.429Z,95413.88
2023-05-20T22:05:53.625Z,95409.47
2023-05-20T22:08:55.401Z,95415.00
2023-05-20T22:11:58.249Z,95414.28
2023-05-20T22:15:01.480Z,95422.44
2023-05-20T22:18:07.643Z,95431.16
2023-05-20T22:21:13.694Z,95416.06
2023-05-20T22:24:16.232Z,95424.06
2023-05-20T22:27:18.892Z,95423.78
2023-05-20T22:30:20.761Z,95422.25
2023-05-20T22:33:23.891Z,95413.63
2023-05-20T22:36:26.037Z,95408.97
2023-05-20T22:39:29.169Z,95400.84
2023-05-20T22:42:33.689Z,95409.00
2023-05-20T22:45:35.816Z,95401.31
2023-05-20T22:48:41.424Z,95402.56
2023-05-20T22:51:43.298Z,95397.59
2023-05-20T22:54:45.611Z,95401.88
2023-05-20T22:57:47.374Z,95397.59
2023-05-20T23:00:49.374Z,95395.66
2023-05-20T23:03:57.067Z,95393.84
2023-05-20T23:06:59.626Z,95392.50
2023-05-20T23:10:01.685Z,95381.00
2023-05-20T23:13:03.468Z,95378.47
2023-05-20T23:16:05.772Z,95383.84
2023-05-20T23:19:09.265Z,95382.31
2023-05-20T23:22:11.044Z,95385.97
2023-05-20T23:25:15.903Z,95377.44
2023-05-20T23:28:18.748Z,95389.50
2023-05-20T23:31:20.728Z,95386.53
2023-05-20T23:34:24.352Z,95383.00
2023-05-20T23:37:26.886Z,95379.72
2023-05-20T23:40:29.014Z,95384.75
2023-05-20T23:43:34.859Z,95376.94
2023-05-20T23:46:37.164Z,95381.34
2023-05-20T23:49:42.965Z,95372.75
2023-05-20T23:52:47.420Z,95373.94
2023-05-20T23:55:49.699Z,95368.06
2023-05-20T23:58:53.495Z,95373.72
